createdAt,value
2023-06-26T00:01:49.492Z,22.70
2023-06-26T00:04:55.369Z,22.60
2023-06-26T00:08:01.341Z,22.57
2023-06-26T00:11:03.923Z,22.53
2023-06-26T00:14:07.425Z,22.45
2023-06-26T00:17:10.464Z,22.48
2023-06-26T00:20:17.897Z,22.46
2023-06-26T00:23:20.856Z,22.39
2023-06-26T00:26:25.391Z,22.37
2023-06-26T00:29:28.357Z,22.40
2023-06-26T00:32:31.244Z,22.38
2023-06-26T00:35:36.695Z,22.31
2023-06-26T00:38:39.399Z,22.28
2023-06-26T00:41:42.268Z,22.22
2023-06-26T00:44:45.060Z,22.16
2023-06-26T00:47:48.077Z,22.11
2023-06-26T00:50:51.939Z,22.02
2023-06-26T00:53:54.953Z,21.98
2023-06-26T00:56:57.740Z,21.94
2023-06-26T01:00:00.686Z,21.95
2023-06-26T01:03:03.666Z,21.87
2023-06-26T01:06:07.716Z,21.86
2023-06-26T01:09:10.371Z,21.79
2023-06-26T01:12:13.114Z,21.78
2023-06-26T01:15:15.751Z,21.78
2023-06-26T01:18:18.518Z,21.69
2023-06-26T01:21:22.679Z,21.69
2023-06-26T01:24:28.694Z,21.64
2023-06-26T01:27:34.356Z,21.57
2023-06-26T01:30:46.891Z,21.56
2023-06-26T01:33:49.779Z,21.51
2023-06-26T01:36:52.371Z,21.45
2023-06-26T01:39:55.300Z,21.41
2023-06-26T01:42:59.952Z,21.41
2023-06-26T01:46:07.157Z,21.35
2023-06-26T01:49:14.160Z,21.27
2023-06-26T01:52:23.239Z,21.31
2023-06-26T01:55:30.883Z,21.32
2023-06-26T01:58:35.237Z,21.22
2023-06-26T02:01:38.190Z,21.20
2023-06-26T02:04:41.641Z,21.18
2023-06-26T02:07:44.908Z,21.21
2023-06-26T02:10:47.638Z,21.19
2023-06-26T02:13:51.643Z,21.10
2023-06-26T02:16:54.345Z,21.10
2023-06-26T02:19:57.076Z,21.08
2023-06-26T02:22:59.746Z,21.04
2023-06-26T02:26:02.416Z,21.03
2023-06-26T02:29:06.423Z,20.98
2023-06-26T02:32:09.512Z,20.97
2023-06-26T02:35:12.256Z,20.94
2023-06-26T02:38:15.024Z,20.89
2023-06-26T02:41:17.653Z,20.82
2023-06-26T02:44:22.261Z,20.82
2023-06-26T02:47:24.894Z,20.80
2023-06-26T02:50:27.463Z,20.78
2023-06-26T02:53:30.164Z,20.78
2023-06-26T02:56:32.978Z,20.76
2023-06-26T02:59:36.970Z,20.76
2023-06-26T03:02:39.806Z,20.71
2023-06-26T03:05:42.530Z,20.52
2023-06-26T03:08:45.622Z,20.44
2023-06-26T03:11:48.320Z,20.48
2023-06-26T03:14:52.457Z,20.48
2023-06-26T03:17:55.138Z,20.51
2023-06-26T03:20:58.628Z,20.55
2023-06-26T03:24:01.340Z,20.52
2023-06-26T03:27:04.282Z,20.51
2023-06-26T03:30:09.551Z,20.50
2023-06-26T03:33:12.896Z,20.46
2023-06-26T03:36:15.672Z,20.44
2023-06-26T03:39:18.451Z,20.47
2023-06-26T03:42:21.358Z,20.51
2023-06-26T03:45:25.624Z,20.54
2023-06-26T03:48:28.921Z,20.59
2023-06-26T03:51:31.828Z,20.62
2023-06-26T03:54:34.968Z,20.67
2023-06-26T03:57:37.722Z,20.72
2023-06-26T04:00:42.075Z,20.79
2023-06-26T04:03:45.420Z,20.80
2023-06-26T04:06:48.540Z,20.83
2023-06-26T04:09:51.201Z,20.90
2023-06-26T04:12:54.238Z,20.99
2023-06-26T04:15:58.262Z,21.05
2023-06-26T04:19:00.904Z,21.12
2023-06-26T04:22:03.869Z,21.16
2023-06-26T04:25:07.601Z,21.23
2023-06-26T04:28:10.189Z,21.31
2023-06-26T04:31:14.196Z,21.43
2023-06-26T04:34:16.788Z,21.50
2023-06-26T04:37:20.004Z,21.56
2023-06-26T04:40:22.429Z,21.64
2023-06-26T04:43:25.047Z,21.73
2023-06-26T04:46:30.082Z,21.89
2023-06-26T04:49:33.481Z,22.02
2023-06-26T04:52:36.434Z,22.17
2023-06-26T04:55:39.992Z,22.27
2023-06-26T04:58:42.874Z,22.36
2023-06-26T05:01:49.258Z,22.46
2023-06-26T05:04:52.160Z,22.62
2023-06-26T05:07:56.024Z,22.78
2023-06-26T05:10:59.632Z,22.93
2023-06-26T05:14:02.671Z,23.01
2023-06-26T05:17:06.740Z,23.19
2023-06-26T05:20:10.958Z,23.32
2023-06-26T05:23:14.379Z,23.50
2023-06-26T05:26:17.476Z,23.70
2023-06-26T05:29:20.344Z,23.87
2023-06-26T05:32:24.892Z,23.98
2023-06-26T05:35:30.941Z,24.11
2023-06-26T05:38:34.135Z,24.26
2023-06-26T05:41:37.524Z,24.47
2023-06-26T05:44:40.359Z,24.54
2023-06-26T05:47:44.877Z,24.70
2023-06-26T05:50:48.355Z,24.83
2023-06-26T05:53:51.986Z,24.96
2023-06-26T05:56:58.017Z,25.01
2023-06-26T06:00:01.101Z,25.19
2023-06-26T06:03:05.271Z,25.37
2023-06-26T06:06:08.142Z,25.55
2023-06-26T06:09:10.748Z,25.77
2023-06-26T06:12:13.394Z,25.91
2023-06-26T06:15:16.128Z,26.08
2023-06-26T06:18:20.070Z,26.16
2023-06-26T06:21:22.845Z,26.28
2023-06-26T06:24:25.409Z,26.46
2023-06-26T06:27:27.962Z,26.58
2023-06-26T06:30:44.170Z,26.75
2023-06-26T06:33:49.326Z,26.91
2023-06-26T06:36:51.983Z,26.97
2023-06-26T06:39:54.576Z,27.07
2023-06-26T06:42:57.187Z,27.24
2023-06-26T06:45:59.828Z,27.29
2023-06-26T06:49:05.249Z,27.40
2023-06-26T06:52:08.155Z,27.47
2023-06-26T06:55:11.587Z,27.64
2023-06-26T06:58:14.457Z,27.82
2023-06-26T07:01:17.161Z,27.98
2023-06-26T07:04:21.053Z,28.17
2023-06-26T07:07:23.780Z,28.30
2023-06-26T07:10:26.328Z,28.39
2023-06-26T07:13:29.026Z,28.52
2023-06-26T07:16:31.695Z,28.55
2023-06-26T07:19:35.665Z,28.58
2023-06-26T07:22:38.955Z,28.78
2023-06-26T07:25:41.641Z,28.83
2023-06-26T07:28:44.156Z,29.08
2023-06-26T07:31:47.290Z,29.11
2023-06-26T07:34:51.265Z,29.31
2023-06-26T07:37:53.838Z,29.56
2023-06-26T07:40:56.359Z,29.71
2023-06-26T07:43:59.952Z,29.81
2023-06-26T07:47:02.775Z,29.90
2023-06-26T07:50:07.206Z,30.01
2023-06-26T07:53:09.828Z,29.98
2023-06-26T07:56:12.526Z,30.24
2023-06-26T07:59:15.680Z,30.31
2023-06-26T08:02:18.343Z,30.55
2023-06-26T08:05:22.484Z,30.78
2023-06-26T08:08:25.287Z,30.91
2023-06-26T08:11:27.662Z,31.12
2023-06-26T08:14:30.363Z,31.24
2023-06-26T08:17:33.098Z,31.40
2023-06-26T08:20:38.390Z,31.35
2023-06-26T08:23:41.239Z,31.47
2023-06-26T08:26:43.914Z,31.57
2023-06-26T08:29:46.533Z,31.77
2023-06-26T08:32:49.423Z,32.09
2023-06-26T08:35:53.655Z,32.18
2023-06-26T08:38:56.318Z,32.13
2023-06-26T08:41:58.975Z,32.35
2023-06-26T08:45:02.747Z,32.15
2023-06-26T08:48:09.502Z,32.05
2023-06-26T08:51:14.313Z,32.27
2023-06-26T08:54:18.024Z,32.40
2023-06-26T08:57:21.109Z,32.76
2023-06-26T09:00:24.113Z,33.08
2023-06-26T09:03:27.301Z,33.07
2023-06-26T09:06:31.400Z,32.94
2023-06-26T09:09:34.168Z,33.06
2023-06-26T09:12:37.235Z,33.18
2023-06-26T09:15:40.704Z,33.22
2023-06-26T09:18:43.788Z,33.05
2023-06-26T09:21:51.896Z,33.53
2023-06-26T09:24:54.817Z,33.90
2023-06-26T09:27:57.756Z,33.66
2023-06-26T09:31:07.605Z,33.82
2023-06-26T09:34:11.558Z,34.20
2023-06-26T09:37:15.899Z,34.08
2023-06-26T09:40:18.535Z,34.44
2023-06-26T09:43:21.278Z,34.39
2023-06-26T09:46:27.865Z,34.73
2023-06-26T09:49:30.650Z,34.67
2023-06-26T09:52:36.165Z,34.95
2023-06-26T09:55:39.320Z,35.04
2023-06-26T09:58:43.018Z,34.58
2023-06-26T10:01:48.108Z,34.61
2023-06-26T10:04:51.109Z,34.75
2023-06-26T10:07:55.189Z,34.73
2023-06-26T10:10:58.275Z,33.92
2023-06-26T10:14:15.749Z,34.12
2023-06-26T10:17:22.501Z,34.12
2023-06-26T10:20:26.660Z,34.72
2023-06-26T10:23:31.117Z,34.38
2023-06-26T10:26:33.761Z,34.49
2023-06-26T10:29:36.839Z,34.62
2023-06-26T10:32:39.846Z,34.26
2023-06-26T10:35:46.047Z,33.94
2023-06-26T10:38:53.658Z,33.44
2023-06-26T10:42:04.885Z,32.97
2023-06-26T10:45:12.469Z,32.52
2023-06-26T10:48:16.770Z,32.24
2023-06-26T10:51:20.675Z,31.64
2023-06-26T10:54:24.580Z,31.37
2023-06-26T10:57:27.742Z,31.61
2023-06-26T11:00:30.866Z,31.73
2023-06-26T11:03:33.488Z,32.18
2023-06-26T11:06:39.755Z,32.62
2023-06-26T11:09:57.654Z,33.14
2023-06-26T11:13:01.339Z,33.44
2023-06-26T11:16:04.159Z,33.24
2023-06-26T11:19:06.999Z,32.83
2023-06-26T11:22:09.598Z,32.48
2023-06-26T11:25:13.709Z,32.63
2023-06-26T11:28:16.483Z,32.70
2023-06-26T11:31:29.131Z,32.94
2023-06-26T11:34:32.490Z,33.01
2023-06-26T11:37:35.383Z,34.05
2023-06-26T11:40:40.066Z,33.09
2023-06-26T11:43:43.077Z,33.23
2023-06-26T11:46:45.755Z,33.56
2023-06-26T11:49:49.287Z,32.89
2023-06-26T11:52:56.727Z,33.62
2023-06-26T11:56:00.800Z,33.57
2023-06-26T11:59:04.734Z,33.18
2023-06-26T12:02:08.722Z,34.26
2023-06-26T12:05:12.088Z,34.04
2023-06-26T12:08:14.839Z,33.73
2023-06-26T12:11:19.370Z,33.44
2023-06-26T12:14:22.432Z,33.56
2023-06-26T12:17:26.199Z,33.04
2023-06-26T12:20:32.090Z,32.64
2023-06-26T12:23:35.505Z,33.08
2023-06-26T12:26:39.463Z,32.93
2023-06-26T12:29:44.846Z,33.61
2023-06-26T12:32:49.372Z,33.85
2023-06-26T12:35:52.040Z,33.50
2023-06-26T12:38:55.754Z,33.35
2023-06-26T12:42:06.457Z,33.36
2023-06-26T12:45:26.818Z,33.64
2023-06-26T12:48:44.427Z,34.13
2023-06-26T12:51:48.092Z,33.45
2023-06-26T12:54:54.693Z,33.73
2023-06-26T12:57:58.717Z,34.78
2023-06-26T13:01:01.501Z,34.52
2023-06-26T13:04:05.033Z,34.96
2023-06-26T13:07:07.780Z,34.12
2023-06-26T13:10:10.644Z,34.68
2023-06-26T13:13:14.557Z,34.88
2023-06-26T13:16:17.494Z,34.74
2023-06-26T13:19:20.081Z,34.06
2023-06-26T13:22:22.650Z,34.06
2023-06-26T13:25:25.367Z,34.39
2023-06-26T13:28:29.300Z,34.44
2023-06-26T13:31:32.047Z,34.53
2023-06-26T13:34:34.659Z,35.18
2023-06-26T13:37:37.719Z,35.34
2023-06-26T13:40:40.368Z,34.93
2023-06-26T13:43:44.578Z,35.62
2023-06-26T13:46:47.943Z,34.54
2023-06-26T13:49:50.592Z,34.76
2023-06-26T13:52:53.193Z,39.47
2023-06-26T13:55:55.855Z,40.69
2023-06-26T13:59:02.525Z,43.30
2023-06-26T14:02:06.419Z,43.90
2023-06-26T14:05:09.721Z,45.24
2023-06-26T14:08:12.515Z,43.91
2023-06-26T14:11:16.751Z,42.82
2023-06-26T14:14:20.764Z,42.39
2023-06-26T14:17:25.209Z,46.51
2023-06-26T14:20:28.870Z,45.87
2023-06-26T14:23:31.623Z,45.22
2023-06-26T14:26:34.931Z,45.65
2023-06-26T14:29:38.971Z,43.79
2023-06-26T14:32:41.685Z,43.58
2023-06-26T14:35:44.356Z,43.97
2023-06-26T14:38:47.056Z,44.71
2023-06-26T14:41:50.170Z,41.19
2023-06-26T14:44:54.692Z,40.83
2023-06-26T14:47:57.947Z,40.28
2023-06-26T14:51:01.443Z,39.09
2023-06-26T14:54:04.246Z,39.83
2023-06-26T14:57:07.814Z,41.48
2023-06-26T15:00:13.345Z,42.08
2023-06-26T15:03:16.259Z,41.93
2023-06-26T15:06:18.929Z,44.52
2023-06-26T15:09:21.594Z,42.78
2023-06-26T15:12:24.449Z,41.00
2023-06-26T15:15:28.648Z,40.82
2023-06-26T15:18:31.251Z,41.07
2023-06-26T15:21:33.940Z,43.27
2023-06-26T15:24:36.577Z,41.74
2023-06-26T15:27:39.183Z,41.02
2023-06-26T15:30:43.135Z,38.83
2023-06-26T15:33:46.233Z,39.41
2023-06-26T15:36:48.875Z,38.30
2023-06-26T15:39:51.647Z,37.12
2023-06-26T15:42:54.633Z,37.00
2023-06-26T15:45:58.563Z,38.57
2023-06-26T15:49:01.159Z,38.53
2023-06-26T15:52:03.895Z,37.90
2023-06-26T15:55:07.473Z,36.03
2023-06-26T15:58:10.073Z,35.76
2023-06-26T16:01:14.581Z,33.71
2023-06-26T16:04:17.286Z,34.14
2023-06-26T16:07:20.437Z,34.45
2023-06-26T16:10:24.205Z,33.21
2023-06-26T16:13:26.953Z,32.80
2023-06-26T16:16:31.296Z,31.71
2023-06-26T16:19:34.073Z,32.42
2023-06-26T16:22:36.695Z,31.45
2023-06-26T16:25:39.581Z,34.25
2023-06-26T16:28:42.357Z,34.85
2023-06-26T16:31:47.208Z,34.29
2023-06-26T16:34:49.972Z,35.22
2023-06-26T16:37:52.568Z,34.03
2023-06-26T16:40:55.258Z,35.20
2023-06-26T16:43:58.033Z,37.07
2023-06-26T16:47:02.973Z,36.35
2023-06-26T16:50:06.718Z,35.64
2023-06-26T16:53:09.469Z,37.70
2023-06-26T16:56:12.080Z,36.90
2023-06-26T16:59:14.739Z,35.37
2023-06-26T17:02:18.710Z,35.44
2023-06-26T17:05:21.399Z,34.09
2023-06-26T17:08:23.965Z,32.78
2023-06-26T17:11:26.513Z,32.40
2023-06-26T17:14:29.123Z,34.15
2023-06-26T17:17:33.592Z,35.84
2023-06-26T17:20:36.207Z,37.38
2023-06-26T17:23:38.888Z,37.19
2023-06-26T17:26:44.112Z,34.61
2023-06-26T17:29:46.766Z,32.36
2023-06-26T17:32:50.645Z,32.15
2023-06-26T17:35:53.231Z,31.19
2023-06-26T17:38:55.819Z,31.30
2023-06-26T17:42:00.265Z,30.70
2023-06-26T17:45:04.150Z,30.00
2023-06-26T17:48:08.319Z,29.51
2023-06-26T17:51:11.060Z,29.18
2023-06-26T17:54:13.836Z,29.10
2023-06-26T17:57:16.874Z,28.74
2023-06-26T18:00:20.230Z,28.22
2023-06-26T18:03:24.202Z,28.02
2023-06-26T18:06:28.039Z,28.14
2023-06-26T18:09:31.376Z,27.71
2023-06-26T18:12:34.100Z,27.85
2023-06-26T18:15:36.753Z,27.77
2023-06-26T18:18:41.917Z,27.47
2023-06-26T18:21:44.562Z,27.90
2023-06-26T18:24:47.053Z,27.94
2023-06-26T18:27:50.066Z,27.55
2023-06-26T18:30:52.641Z,27.23
2023-06-26T18:33:56.655Z,27.41
2023-06-26T18:36:59.768Z,26.93
2023-06-26T18:40:02.594Z,26.91
2023-06-26T18:43:05.351Z,26.66
2023-06-26T18:46:07.865Z,26.71
2023-06-26T18:49:11.843Z,26.45
2023-06-26T18:52:14.404Z,26.44
2023-06-26T18:55:17.373Z,26.41
2023-06-26T18:58:20.112Z,26.22
2023-06-26T19:01:22.766Z,26.09
2023-06-26T19:04:26.915Z,26.04
2023-06-26T19:07:29.609Z,25.97
2023-06-26T19:10:32.187Z,25.77
2023-06-26T19:13:35.108Z,25.69
2023-06-26T19:16:37.612Z,25.60
2023-06-26T19:19:41.563Z,25.33
2023-06-26T19:22:44.200Z,25.23
2023-06-26T19:25:47.345Z,25.20
2023-06-26T19:28:49.954Z,25.04
2023-06-26T19:31:53.230Z,24.96
2023-06-26T19:34:57.245Z,24.80
2023-06-26T19:38:05.657Z,24.82
2023-06-26T19:41:09.001Z,24.82
2023-06-26T19:44:11.760Z,24.69
2023-06-26T19:47:14.465Z,24.71
2023-06-26T19:50:19.004Z,24.75
2023-06-26T19:53:21.816Z,24.51
2023-06-26T19:56:26.204Z,24.47
2023-06-26T19:59:29.090Z,24.43
2023-06-26T20:02:32.020Z,24.31
2023-06-26T20:05:36.266Z,24.20
2023-06-26T20:08:38.820Z,24.23
2023-06-26T20:11:41.465Z,24.06
2023-06-26T20:14:44.688Z,24.10
2023-06-26T20:17:47.652Z,24.09
2023-06-26T20:20:51.604Z,23.97
2023-06-26T20:23:54.280Z,23.90
2023-06-26T20:26:57.245Z,23.88
2023-06-26T20:30:02.355Z,23.97
2023-06-26T20:33:05.242Z,23.84
2023-06-26T20:36:09.574Z,23.82
2023-06-26T20:39:12.212Z,23.70
2023-06-26T20:42:16.002Z,23.59
2023-06-26T20:45:19.701Z,23.61
2023-06-26T20:48:22.990Z,23.46
2023-06-26T20:51:28.275Z,23.47
2023-06-26T20:54:31.433Z,23.49
2023-06-26T20:57:34.374Z,23.52
2023-06-26T21:00:37.060Z,23.56
2023-06-26T21:03:39.795Z,23.44
2023-06-26T21:06:44.867Z,23.49
2023-06-26T21:09:49.155Z,23.44
2023-06-26T21:12:52.143Z,23.22
2023-06-26T21:15:54.812Z,23.37
2023-06-26T21:18:57.814Z,23.21
2023-06-26T21:22:02.114Z,23.09
2023-06-26T21:25:05.564Z,23.14
2023-06-26T21:28:08.900Z,23.29
2023-06-26T21:31:11.924Z,23.21
2023-06-26T21:34:15.297Z,22.95
2023-06-26T21:37:20.619Z,23.16
2023-06-26T21:40:24.428Z,23.17
2023-06-26T21:43:27.361Z,23.00
2023-06-26T21:46:30.078Z,23.04
2023-06-26T21:49:33.448Z,22.93
2023-06-26T21:52:37.588Z,23.02
2023-06-26T21:55:40.580Z,22.93
2023-06-26T21:58:43.564Z,22.86
2023-06-26T22:01:46.348Z,23.00
2023-06-26T22:04:49.153Z,22.91
2023-06-26T22:07:56.227Z,23.07
2023-06-26T22:10:59.381Z,22.86
2023-06-26T22:14:02.285Z,22.99
2023-06-26T22:17:05.448Z,22.90
2023-06-26T22:23:39.214Z,22.61
2023-06-26T22:26:41.882Z,22.73
2023-06-26T22:29:45.026Z,22.71
2023-06-26T22:32:48.059Z,22.61
2023-06-26T22:35:50.946Z,22.62
2023-06-26T22:38:54.963Z,22.52
2023-06-26T22:41:57.814Z,22.46
2023-06-26T22:45:00.765Z,22.26
2023-06-26T22:48:03.681Z,22.30
2023-06-26T22:51:06.368Z,22.37
2023-06-26T22:54:10.372Z,22.37
2023-06-26T22:57:13.143Z,22.46
2023-06-26T23:00:16.740Z,22.48
2023-06-26T23:03:19.541Z,22.41
2023-06-26T23:06:23.022Z,22.46
2023-06-26T23:09:27.880Z,22.42
2023-06-26T23:12:30.742Z,22.34
2023-06-26T23:15:33.812Z,22.42
2023-06-26T23:18:36.637Z,22.21
2023-06-26T23:21:39.612Z,22.08
2023-06-26T23:24:43.642Z,22.09
2023-06-26T23:27:46.206Z,22.19
2023-06-26T23:30:49.076Z,22.23
2023-06-26T23:33:51.923Z,22.21
2023-06-26T23:36:54.597Z,22.13
2023-06-26T23:39:58.840Z,22.00
2023-06-26T23:43:04.405Z,21.99
2023-06-26T23:46:11.663Z,21.85
2023-06-26T23:49:14.641Z,21.80
2023-06-26T23:52:17.256Z,21.84
2023-06-26T23:55:21.647Z,21.98
2023-06-26T23:58:24.368Z,22.01
